sensor_id;sensor_type;location;lat;lon;timestamp;temperature;humidity
49731;DHT22;35622;52.008;5.426;2023-02-23T00:01:13;13.30;77.00
49731;DHT22;35622;52.008;5.426;2023-02-23T00:03:39;13.30;76.70
49731;DHT22;35622;52.008;5.426;2023-02-23T00:06:06;13.20;77.30
49731;DHT22;35622;52.008;5.426;2023-02-23T00:08:33;13.20;77.60
49731;DHT22;35622;52.008;5.426;2023-02-23T00:11:02;13.30;76.90
49731;DHT22;35622;52.008;5.426;2023-02-23T00:13:27;13.20;77.20
49731;DHT22;35622;52.008;5.426;2023-02-23T00:15:54;13.10;77.70
49731;DHT22;35622;52.008;5.426;2023-02-23T00:18:19;13.20;77.90
49731;DHT22;35622;52.008;5.426;2023-02-23T00:20:54;13.10;77.80
49731;DHT22;35622;52.008;5.426;2023-02-23T00:23:22;13.10;78.10
49731;DHT22;35622;52.008;5.426;2023-02-23T00:25:47;13.20;77.50
49731;DHT22;35622;52.008;5.426;2023-02-23T00:28:13;13.10;77.80
49731;DHT22;35622;52.008;5.426;2023-02-23T00:30:39;13.20;77.80
49731;DHT22;35622;52.008;5.426;2023-02-23T00:33:04;13.20;77.90
49731;DHT22;35622;52.008;5.426;2023-02-23T00:35:32;13.20;77.20
49731;DHT22;35622;52.008;5.426;2023-02-23T00:37:57;13.20;77.50
49731;DHT22;35622;52.008;5.426;2023-02-23T00:40:23;13.20;77.80
49731;DHT22;35622;52.008;5.426;2023-02-23T00:42:49;13.20;77.60
49731;DHT22;35622;52.008;5.426;2023-02-23T00:45:17;13.20;77.40
49731;DHT22;35622;52.008;5.426;2023-02-23T00:47:44;13.20;77.30
49731;DHT22;35622;52.008;5.426;2023-02-23T00:50:12;13.20;77.10
49731;DHT22;35622;52.008;5.426;2023-02-23T00:52:39;13.30;76.50
49731;DHT22;35622;52.008;5.426;2023-02-23T00:55:07;13.20;77.00
49731;DHT22;35622;52.008;5.426;2023-02-23T00:57:33;13.20;76.90
49731;DHT22;35622;52.008;5.426;2023-02-23T00:59:59;13.30;76.80
49731;DHT22;35622;52.008;5.426;2023-02-23T01:02:27;13.40;76.50
49731;DHT22;35622;52.008;5.426;2023-02-23T01:04:55;13.10;76.70
49731;DHT22;35622;52.008;5.426;2023-02-23T01:07:20;13.00;77.40
49731;DHT22;35622;52.008;5.426;2023-02-23T01:09:50;13.00;77.80
49731;DHT22;35622;52.008;5.426;2023-02-23T01:12:15;13.10;77.70
49731;DHT22;35622;52.008;5.426;2023-02-23T01:14:41;13.00;77.70
49731;DHT22;35622;52.008;5.426;2023-02-23T01:17:07;13.00;77.70
49731;DHT22;35622;52.008;5.426;2023-02-23T01:19:32;13.00;78.00
49731;DHT22;35622;52.008;5.426;2023-02-23T01:21:59;13.10;78.20
49731;DHT22;35622;52.008;5.426;2023-02-23T01:24:27;13.00;78.00
49731;DHT22;35622;52.008;5.426;2023-02-23T01:26:53;13.10;78.20
49731;DHT22;35622;52.008;5.426;2023-02-23T01:29:18;13.10;77.90
49731;DHT22;35622;52.008;5.426;2023-02-23T01:31:46;13.10;77.70
49731;DHT22;35622;52.008;5.426;2023-02-23T01:34:13;13.10;77.70
49731;DHT22;35622;52.008;5.426;2023-02-23T01:36:41;13.00;77.60
49731;DHT22;35622;52.008;5.426;2023-02-23T01:39:12;13.10;78.00
49731;DHT22;35622;52.008;5.426;2023-02-23T01:41:38;13.00;77.90
49731;DHT22;35622;52.008;5.426;2023-02-23T01:46:56;13.10;77.50
49731;DHT22;35622;52.008;5.426;2023-02-23T01:49:25;13.00;77.60
49731;DHT22;35622;52.008;5.426;2023-02-23T01:51:59;13.00;77.70
49731;DHT22;35622;52.008;5.426;2023-02-23T01:54:50;13.10;77.60
49731;DHT22;35622;52.008;5.426;2023-02-23T01:57:19;13.10;77.50
49731;DHT22;35622;52.008;5.426;2023-02-23T01:59:47;13.10;77.80
49731;DHT22;35622;52.008;5.426;2023-02-23T02:02:16;13.10;77.60
49731;DHT22;35622;52.008;5.426;2023-02-23T02:04:43;13.10;77.40
49731;DHT22;35622;52.008;5.426;2023-02-23T02:07:23;13.00;77.60
49731;DHT22;35622;52.008;5.426;2023-02-23T02:09:52;13.10;77.50
49731;DHT22;35622;52.008;5.426;2023-02-23T02:12:51;13.10;78.40
49731;DHT22;35622;52.008;5.426;2023-02-23T02:15:20;13.10;77.20
49731;DHT22;35622;52.008;5.426;2023-02-23T02:18:30;13.10;77.40
49731;DHT22;35622;52.008;5.426;2023-02-23T02:38:44;12.90;78.40
49731;DHT22;35622;52.008;5.426;2023-02-23T02:41:24;13.00;78.20
49731;DHT22;35622;52.008;5.426;2023-02-23T02:44:14;13.00;77.60
49731;DHT22;35622;52.008;5.426;2023-02-23T02:46:45;12.90;78.00
49731;DHT22;35622;52.008;5.426;2023-02-23T02:49:25;12.80;78.30
49731;DHT22;35622;52.008;5.426;2023-02-23T02:52:05;12.90;78.20
49731;DHT22;35622;52.008;5.426;2023-02-23T02:54:41;12.90;78.10
49731;DHT22;35622;52.008;5.426;2023-02-23T02:57:09;12.90;78.40
49731;DHT22;35622;52.008;5.426;2023-02-23T02:59:47;12.90;78.60
49731;DHT22;35622;52.008;5.426;2023-02-23T03:02:34;12.90;78.70
49731;DHT22;35622;52.008;5.426;2023-02-23T03:05:24;13.00;78.30
49731;DHT22;35622;52.008;5.426;2023-02-23T03:08:32;13.00;78.10
49731;DHT22;35622;52.008;5.426;2023-02-23T03:11:22;13.10;77.70
49731;DHT22;35622;52.008;5.426;2023-02-23T03:14:40;13.00;77.60
49731;DHT22;35622;52.008;5.426;2023-02-23T03:17:41;12.80;78.30
49731;DHT22;35622;52.008;5.426;2023-02-23T03:26:24;12.80;78.70
49731;DHT22;35622;52.008;5.426;2023-02-23T03:29:17;12.80;78.90
49731;DHT22;35622;52.008;5.426;2023-02-23T03:32:34;12.80;79.30
49731;DHT22;35622;52.008;5.426;2023-02-23T03:35:36;12.80;79.20
49731;DHT22;35622;52.008;5.426;2023-02-23T03:38:45;12.80;79.10
49731;DHT22;35622;52.008;5.426;2023-02-23T03:41:30;12.70;80.30
49731;DHT22;35622;52.008;5.426;2023-02-23T03:44:22;12.80;79.50
49731;DHT22;35622;52.008;5.426;2023-02-23T03:47:07;12.90;79.20
49731;DHT22;35622;52.008;5.426;2023-02-23T03:49:55;12.80;79.40
49731;DHT22;35622;52.008;5.426;2023-02-23T03:52:45;12.90;78.60
49731;DHT22;35622;52.008;5.426;2023-02-23T03:55:34;12.80;79.00
49731;DHT22;35622;52.008;5.426;2023-02-23T03:58:23;12.70;79.20
49731;DHT22;35622;52.008;5.426;2023-02-23T04:01:11;12.80;79.40
49731;DHT22;35622;52.008;5.426;2023-02-23T04:03:56;12.70;79.50
49731;DHT22;35622;52.008;5.426;2023-02-23T04:06:44;12.80;79.30
49731;DHT22;35622;52.008;5.426;2023-02-23T04:09:29;12.80;79.60
49731;DHT22;35622;52.008;5.426;2023-02-23T04:15:25;12.70;79.50
49731;DHT22;35622;52.008;5.426;2023-02-23T04:17:52;12.80;79.20
49731;DHT22;35622;52.008;5.426;2023-02-23T04:20:18;12.90;79.00
49731;DHT22;35622;52.008;5.426;2023-02-23T04:22:44;12.80;78.80
49731;DHT22;35622;52.008;5.426;2023-02-23T04:25:10;12.70;79.20
49731;DHT22;35622;52.008;5.426;2023-02-23T04:27:37;12.70;79.50
49731;DHT22;35622;52.008;5.426;2023-02-23T04:30:04;12.80;79.30
49731;DHT22;35622;52.008;5.426;2023-02-23T04:32:29;12.80;79.20
49731;DHT22;35622;52.008;5.426;2023-02-23T04:34:55;12.70;79.20
49731;DHT22;35622;52.008;5.426;2023-02-23T04:37:21;12.80;79.30
49731;DHT22;35622;52.008;5.426;2023-02-23T04:39:46;12.90;78.80
49731;DHT22;35622;52.008;5.426;2023-02-23T04:42:15;12.80;78.50
49731;DHT22;35622;52.008;5.426;2023-02-23T04:44:41;12.70;79.00
49731;DHT22;35622;52.008;5.426;2023-02-23T04:47:06;12.70;79.30
49731;DHT22;35622;52.008;5.426;2023-02-23T04:49:32;12.80;79.50
49731;DHT22;35622;52.008;5.426;2023-02-23T04:51:57;12.80;79.30
49731;DHT22;35622;52.008;5.426;2023-02-23T04:54:23;12.70;79.40
49731;DHT22;35622;52.008;5.426;2023-02-23T04:56:49;12.70;79.70
49731;DHT22;35622;52.008;5.426;2023-02-23T04:59:14;12.80;79.40
49731;DHT22;35622;52.008;5.426;2023-02-23T05:01:40;12.70;79.20
49731;DHT22;35622;52.008;5.426;2023-02-23T05:04:05;12.70;79.50
49731;DHT22;35622;52.008;5.426;2023-02-23T05:06:31;12.80;79.70
49731;DHT22;35622;52.008;5.426;2023-02-23T05:08:57;12.70;79.70
49731;DHT22;35622;52.008;5.426;2023-02-23T05:11:22;12.80;79.50
49731;DHT22;35622;52.008;5.426;2023-02-23T05:13:49;12.90;79.00
49731;DHT22;35622;52.008;5.426;2023-02-23T05:16:14;12.80;79.10
49731;DHT22;35622;52.008;5.426;2023-02-23T05:18:41;12.80;79.20
49731;DHT22;35622;52.008;5.426;2023-02-23T05:21:07;12.80;78.90
49731;DHT22;35622;52.008;5.426;2023-02-23T05:23:36;13.00;78.60
49731;DHT22;35622;52.008;5.426;2023-02-23T05:26:08;12.90;78.70
49731;DHT22;35622;52.008;5.426;2023-02-23T05:28:35;12.80;79.30
49731;DHT22;35622;52.008;5.426;2023-02-23T05:31:01;12.80;79.20
49731;DHT22;35622;52.008;5.426;2023-02-23T05:33:28;12.60;79.80
49731;DHT22;35622;52.008;5.426;2023-02-23T05:35:54;12.70;80.20
49731;DHT22;35622;52.008;5.426;2023-02-23T05:38:20;12.80;80.10
49731;DHT22;35622;52.008;5.426;2023-02-23T05:40:46;12.90;79.60
49731;DHT22;35622;52.008;5.426;2023-02-23T05:43:12;12.80;79.60
49731;DHT22;35622;52.008;5.426;2023-02-23T05:45:42;12.80;79.70
49731;DHT22;35622;52.008;5.426;2023-02-23T05:48:08;12.80;79.60
49731;DHT22;35622;52.008;5.426;2023-02-23T05:50:34;12.80;79.50
49731;DHT22;35622;52.008;5.426;2023-02-23T05:53:00;12.80;79.60
49731;DHT22;35622;52.008;5.426;2023-02-23T05:55:26;12.60;79.90
49731;DHT22;35622;52.008;5.426;2023-02-23T05:57:51;12.60;80.40
49731;DHT22;35622;52.008;5.426;2023-02-23T06:00:18;12.60;80.60
49731;DHT22;35622;52.008;5.426;2023-02-23T06:02:43;12.80;80.10
49731;DHT22;35622;52.008;5.426;2023-02-23T06:05:10;12.70;79.80
49731;DHT22;35622;52.008;5.426;2023-02-23T06:07:36;12.80;79.40
49731;DHT22;35622;52.008;5.426;2023-02-23T06:10:02;12.70;79.70
49731;DHT22;35622;52.008;5.426;2023-02-23T06:12:28;12.80;79.70
49731;DHT22;35622;52.008;5.426;2023-02-23T06:14:53;12.70;79.80
49731;DHT22;35622;52.008;5.426;2023-02-23T06:17:19;12.70;79.70
49731;DHT22;35622;52.008;5.426;2023-02-23T06:19:44;12.70;79.90
49731;DHT22;35622;52.008;5.426;2023-02-23T06:22:10;12.70;80.90
49731;DHT22;35622;52.008;5.426;2023-02-23T06:24:36;12.70;79.50
49731;DHT22;35622;52.008;5.426;2023-02-23T06:27:01;12.80;79.40
49731;DHT22;35622;52.008;5.426;2023-02-23T06:29:27;12.80;79.10
49731;DHT22;35622;52.008;5.426;2023-02-23T06:31:52;12.70;79.20
49731;DHT22;35622;52.008;5.426;2023-02-23T06:34:18;12.60;79.40
49731;DHT22;35622;52.008;5.426;2023-02-23T06:36:44;12.60;79.70
49731;DHT22;35622;52.008;5.426;2023-02-23T06:39:10;12.60;79.80
49731;DHT22;35622;52.008;5.426;2023-02-23T06:41:36;12.60;80.10
49731;DHT22;35622;52.008;5.426;2023-02-23T06:44:02;12.70;80.00
49731;DHT22;35622;52.008;5.426;2023-02-23T06:46:27;12.70;79.00
49731;DHT22;35622;52.008;5.426;2023-02-23T06:48:54;12.70;79.50
49731;DHT22;35622;52.008;5.426;2023-02-23T06:51:20;12.70;79.20
49731;DHT22;35622;52.008;5.426;2023-02-23T06:53:45;12.70;79.00
49731;DHT22;35622;52.008;5.426;2023-02-23T06:56:11;12.60;79.60
49731;DHT22;35622;52.008;5.426;2023-02-23T06:58:38;12.60;79.90
49731;DHT22;35622;52.008;5.426;2023-02-23T07:01:04;12.60;80.10
49731;DHT22;35622;52.008;5.426;2023-02-23T07:03:30;12.60;80.00
49731;DHT22;35622;52.008;5.426;2023-02-23T07:05:55;12.90;78.50
49731;DHT22;35622;52.008;5.426;2023-02-23T07:08:21;12.80;78.60
49731;DHT22;35622;52.008;5.426;2023-02-23T07:10:46;12.80;78.70
49731;DHT22;35622;52.008;5.426;2023-02-23T07:13:12;12.80;79.00
49731;DHT22;35622;52.008;5.426;2023-02-23T07:15:39;12.90;78.30
49731;DHT22;35622;52.008;5.426;2023-02-23T07:18:05;12.70;78.70
49731;DHT22;35622;52.008;5.426;2023-02-23T07:20:31;12.60;79.20
49731;DHT22;35622;52.008;5.426;2023-02-23T07:22:58;12.60;79.70
49731;DHT22;35622;52.008;5.426;2023-02-23T07:25:28;12.70;80.10
49731;DHT22;35622;52.008;5.426;2023-02-23T07:27:54;12.80;80.10
49731;DHT22;35622;52.008;5.426;2023-02-23T07:30:20;12.80;80.10
49731;DHT22;35622;52.008;5.426;2023-02-23T07:32:52;12.80;80.10
49731;DHT22;35622;52.008;5.426;2023-02-23T07:35:18;12.80;80.20
49731;DHT22;35622;52.008;5.426;2023-02-23T07:37:43;12.90;80.00
49731;DHT22;35622;52.008;5.426;2023-02-23T07:40:10;12.90;79.70
49731;DHT22;35622;52.008;5.426;2023-02-23T07:42:35;13.10;79.40
49731;DHT22;35622;52.008;5.426;2023-02-23T07:45:01;13.00;79.10
49731;DHT22;35622;52.008;5.426;2023-02-23T07:47:26;13.00;79.60
49731;DHT22;35622;52.008;5.426;2023-02-23T07:49:58;13.10;79.80
49731;DHT22;35622;52.008;5.426;2023-02-23T07:52:26;13.10;79.90
49731;DHT22;35622;52.008;5.426;2023-02-23T07:54:51;13.10;79.70
49731;DHT22;35622;52.008;5.426;2023-02-23T07:57:17;13.20;79.80
49731;DHT22;35622;52.008;5.426;2023-02-23T07:59:42;13.30;79.30
49731;DHT22;35622;52.008;5.426;2023-02-23T08:02:11;13.40;78.90
49731;DHT22;35622;52.008;5.426;2023-02-23T08:04:37;13.40;79.00
49731;DHT22;35622;52.008;5.426;2023-02-23T08:07:03;13.60;78.10
49731;DHT22;35622;52.008;5.426;2023-02-23T08:09:28;13.70;77.80
49731;DHT22;35622;52.008;5.426;2023-02-23T08:11:57;13.80;77.50
49731;DHT22;35622;52.008;5.426;2023-02-23T08:14:22;13.70;77.90
49731;DHT22;35622;52.008;5.426;2023-02-23T08:16:48;13.70;78.50
49731;DHT22;35622;52.008;5.426;2023-02-23T08:19:14;13.80;78.10
49731;DHT22;35622;52.008;5.426;2023-02-23T08:21:39;13.80;78.50
49731;DHT22;35622;52.008;5.426;2023-02-23T08:24:07;13.70;78.80
49731;DHT22;35622;52.008;5.426;2023-02-23T08:26:35;13.80;79.20
49731;DHT22;35622;52.008;5.426;2023-02-23T08:29:03;13.90;79.20
49731;DHT22;35622;52.008;5.426;2023-02-23T08:31:28;14.00;78.60
49731;DHT22;35622;52.008;5.426;2023-02-23T08:33:54;14.00;77.90
49731;DHT22;35622;52.008;5.426;2023-02-23T08:36:20;13.90;78.10
49731;DHT22;35622;52.008;5.426;2023-02-23T08:38:46;14.20;78.00
49731;DHT22;35622;52.008;5.426;2023-02-23T08:41:12;14.20;77.50
49731;DHT22;35622;52.008;5.426;2023-02-23T08:43:37;14.10;77.60
49731;DHT22;35622;52.008;5.426;2023-02-23T08:46:04;14.20;77.80
49731;DHT22;35622;52.008;5.426;2023-02-23T08:48:30;14.30;77.30
49731;DHT22;35622;52.008;5.426;2023-02-23T08:50:57;14.40;76.90
49731;DHT22;35622;52.008;5.426;2023-02-23T08:53:23;14.30;76.40
49731;DHT22;35622;52.008;5.426;2023-02-23T08:55:54;14.40;75.60
49731;DHT22;35622;52.008;5.426;2023-02-23T08:58:20;14.20;76.50
49731;DHT22;35622;52.008;5.426;2023-02-23T09:00:45;14.20;77.00
49731;DHT22;35622;52.008;5.426;2023-02-23T09:03:11;14.30;76.30
49731;DHT22;35622;52.008;5.426;2023-02-23T09:05:36;14.00;76.20
49731;DHT22;35622;52.008;5.426;2023-02-23T09:08:03;13.90;77.30
49731;DHT22;35622;52.008;5.426;2023-02-23T09:10:28;14.10;77.10
49731;DHT22;35622;52.008;5.426;2023-02-23T09:12:54;14.20;76.50
49731;DHT22;35622;52.008;5.426;2023-02-23T09:15:20;14.10;76.90
49731;DHT22;35622;52.008;5.426;2023-02-23T09:17:46;14.20;76.70
49731;DHT22;35622;52.008;5.426;2023-02-23T09:20:15;14.20;76.50
49731;DHT22;35622;52.008;5.426;2023-02-23T09:22:44;14.20;76.60
49731;DHT22;35622;52.008;5.426;2023-02-23T09:25:19;14.40;76.50
49731;DHT22;35622;52.008;5.426;2023-02-23T09:27:52;14.00;76.20
49731;DHT22;35622;52.008;5.426;2023-02-23T09:30:19;14.20;76.50
49731;DHT22;35622;52.008;5.426;2023-02-23T09:32:52;14.30;76.80
49731;DHT22;35622;52.008;5.426;2023-02-23T09:35:20;14.50;76.80
49731;DHT22;35622;52.008;5.426;2023-02-23T09:37:48;14.60;76.00
49731;DHT22;35622;52.008;5.426;2023-02-23T09:40:20;14.80;75.60
49731;DHT22;35622;52.008;5.426;2023-02-23T09:43:16;14.90;74.80
49731;DHT22;35622;52.008;5.426;2023-02-23T09:45:51;14.90;74.70
49731;DHT22;35622;52.008;5.426;2023-02-23T09:48:25;14.90;74.90
49731;DHT22;35622;52.008;5.426;2023-02-23T09:50:56;14.80;75.60
49731;DHT22;35622;52.008;5.426;2023-02-23T09:53:36;14.90;75.20
49731;DHT22;35622;52.008;5.426;2023-02-23T09:56:29;14.90;75.50
49731;DHT22;35622;52.008;5.426;2023-02-23T09:58:50;15.10;73.40
49731;DHT22;35622;52.008;5.426;2023-02-23T10:01:19;15.10;73.50
49731;DHT22;35622;52.008;5.426;2023-02-23T10:09:43;15.00;73.10
49731;DHT22;35622;52.008;5.426;2023-02-23T10:12:31;15.10;73.30
49731;DHT22;35622;52.008;5.426;2023-02-23T10:15:13;15.10;72.60
49731;DHT22;35622;52.008;5.426;2023-02-23T10:18:04;15.10;73.40
49731;DHT22;35622;52.008;5.426;2023-02-23T10:20:45;15.10;73.80
49731;DHT22;35622;52.008;5.426;2023-02-23T10:23:21;15.20;72.80
49731;DHT22;35622;52.008;5.426;2023-02-23T10:25:49;15.10;73.30
49731;DHT22;35622;52.008;5.426;2023-02-23T10:28:18;15.20;73.10
49731;DHT22;35622;52.008;5.426;2023-02-23T10:30:47;15.20;72.50
49731;DHT22;35622;52.008;5.426;2023-02-23T10:33:32;15.40;71.80
49731;DHT22;35622;52.008;5.426;2023-02-23T10:36:09;15.40;71.80
49731;DHT22;35622;52.008;5.426;2023-02-23T10:38:37;15.40;71.60
49731;DHT22;35622;52.008;5.426;2023-02-23T10:41:02;15.20;72.30
49731;DHT22;35622;52.008;5.426;2023-02-23T10:43:28;15.00;72.80
49731;DHT22;35622;52.008;5.426;2023-02-23T10:45:54;15.20;71.80
49731;DHT22;35622;52.008;5.426;2023-02-23T10:48:26;15.00;72.10
49731;DHT22;35622;52.008;5.426;2023-02-23T10:50:56;15.00;72.80
49731;DHT22;35622;52.008;5.426;2023-02-23T10:53:31;15.10;73.20
49731;DHT22;35622;52.008;5.426;2023-02-23T10:56:11;15.00;72.50
49731;DHT22;35622;52.008;5.426;2023-02-23T10:58:53;15.10;72.20
49731;DHT22;35622;52.008;5.426;2023-02-23T11:01:40;15.20;71.80
49731;DHT22;35622;52.008;5.426;2023-02-23T11:06:44;15.00;72.80
49731;DHT22;35622;52.008;5.426;2023-02-23T11:09:28;15.10;71.90
49731;DHT22;35622;52.008;5.426;2023-02-23T11:11:57;14.90;72.20
49731;DHT22;35622;52.008;5.426;2023-02-23T11:14:24;14.90;72.60
49731;DHT22;35622;52.008;5.426;2023-02-23T11:16:52;14.90;73.10
49731;DHT22;35622;52.008;5.426;2023-02-23T11:19:30;15.20;72.50
49731;DHT22;35622;52.008;5.426;2023-02-23T11:21:57;15.00;72.20
49731;DHT22;35622;52.008;5.426;2023-02-23T11:24:28;15.10;73.30
49731;DHT22;35622;52.008;5.426;2023-02-23T11:26:59;15.30;73.10
49731;DHT22;35622;52.008;5.426;2023-02-23T11:29:37;15.50;71.30
49731;DHT22;35622;52.008;5.426;2023-02-23T11:32:15;15.40;71.20
49731;DHT22;35622;52.008;5.426;2023-02-23T11:34:42;15.70;69.60
49731;DHT22;35622;52.008;5.426;2023-02-23T11:39:57;15.60;69.80
49731;DHT22;35622;52.008;5.426;2023-02-23T11:42:27;15.50;70.60
49731;DHT22;35622;52.008;5.426;2023-02-23T11:45:04;15.50;70.50
49731;DHT22;35622;52.008;5.426;2023-02-23T11:47:32;15.50;71.10
49731;DHT22;35622;52.008;5.426;2023-02-23T11:49:59;15.70;70.40
49731;DHT22;35622;52.008;5.426;2023-02-23T11:52:25;15.80;70.30
49731;DHT22;35622;52.008;5.426;2023-02-23T11:54:56;15.90;70.00
49731;DHT22;35622;52.008;5.426;2023-02-23T11:57:33;16.00;68.70
49731;DHT22;35622;52.008;5.426;2023-02-23T12:00:04;15.70;69.10
49731;DHT22;35622;52.008;5.426;2023-02-23T12:02:47;15.80;69.50
49731;DHT22;35622;52.008;5.426;2023-02-23T12:05:21;16.00;68.20
49731;DHT22;35622;52.008;5.426;2023-02-23T12:08:16;16.20;67.40
49731;DHT22;35622;52.008;5.426;2023-02-23T12:10:48;16.00;67.30
49731;DHT22;35622;52.008;5.426;2023-02-23T12:13:44;15.80;66.80
49731;DHT22;35622;52.008;5.426;2023-02-23T12:21:35;15.60;66.30
49731;DHT22;35622;52.008;5.426;2023-02-23T12:24:14;15.50;66.80
49731;DHT22;35622;52.008;5.426;2023-02-23T12:26:52;15.50;66.60
49731;DHT22;35622;52.008;5.426;2023-02-23T12:30:15;15.40;67.80
49731;DHT22;35622;52.008;5.426;2023-02-23T12:32:19;14.90;68.60
49731;DHT22;35622;52.008;5.426;2023-02-23T12:34:55;14.90;69.00
49731;DHT22;35622;52.008;5.426;2023-02-23T12:40:03;14.50;68.80
49731;DHT22;35622;52.008;5.426;2023-02-23T12:45:38;14.50;70.40
49731;DHT22;35622;52.008;5.426;2023-02-23T12:48:13;14.70;69.80
49731;DHT22;35622;52.008;5.426;2023-02-23T12:50:50;14.70;69.10
49731;DHT22;35622;52.008;5.426;2023-02-23T12:53:30;15.10;67.90
49731;DHT22;35622;52.008;5.426;2023-02-23T13:01:41;14.70;68.60
49731;DHT22;35622;52.008;5.426;2023-02-23T13:08:18;14.60;69.80
49731;DHT22;35622;52.008;5.426;2023-02-23T13:13:32;14.90;69.70
49731;DHT22;35622;52.008;5.426;2023-02-23T13:16:23;15.10;69.40
49731;DHT22;35622;52.008;5.426;2023-02-23T13:18:58;15.30;68.10
49731;DHT22;35622;52.008;5.426;2023-02-23T13:24:15;15.60;66.40
49731;DHT22;35622;52.008;5.426;2023-02-23T13:26:59;15.70;64.50
49731;DHT22;35622;52.008;5.426;2023-02-23T13:29:47;15.50;64.60
49731;DHT22;35622;52.008;5.426;2023-02-23T13:32:20;15.50;66.10
49731;DHT22;35622;52.008;5.426;2023-02-23T13:34:56;15.60;66.60
49731;DHT22;35622;52.008;5.426;2023-02-23T13:40:34;16.20;64.70
49731;DHT22;35622;52.008;5.426;2023-02-23T13:43:08;16.00;63.90
49731;DHT22;35622;52.008;5.426;2023-02-23T13:51:36;16.00;64.60
49731;DHT22;35622;52.008;5.426;2023-02-23T13:56:43;15.90;63.90
49731;DHT22;35622;52.008;5.426;2023-02-23T13:59:15;15.70;63.90
49731;DHT22;35622;52.008;5.426;2023-02-23T14:01:48;15.80;63.00
49731;DHT22;35622;52.008;5.426;2023-02-23T14:04:28;15.70;62.90
49731;DHT22;35622;52.008;5.426;2023-02-23T14:07:12;15.50;63.50
49731;DHT22;35622;52.008;5.426;2023-02-23T14:10:03;15.30;65.00
49731;DHT22;35622;52.008;5.426;2023-02-23T14:12:42;15.30;65.10
49731;DHT22;35622;52.008;5.426;2023-02-23T14:18:02;15.20;65.80
49731;DHT22;35622;52.008;5.426;2023-02-23T14:25:47;14.90;66.50
49731;DHT22;35622;52.008;5.426;2023-02-23T14:41:51;14.70;68.70
49731;DHT22;35622;52.008;5.426;2023-02-23T14:44:30;14.80;68.10
49731;DHT22;35622;52.008;5.426;2023-02-23T14:49:30;14.70;68.60
49731;DHT22;35622;52.008;5.426;2023-02-23T14:51:58;14.40;69.00
49731;DHT22;35622;52.008;5.426;2023-02-23T14:54:35;14.40;69.20
49731;DHT22;35622;52.008;5.426;2023-02-23T14:57:03;14.60;68.60
49731;DHT22;35622;52.008;5.426;2023-02-23T14:59:40;14.70;68.80
49731;DHT22;35622;52.008;5.426;2023-02-23T15:02:16;14.80;68.70
49731;DHT22;35622;52.008;5.426;2023-02-23T15:04:41;14.80;68.30
49731;DHT22;35622;52.008;5.426;2023-02-23T15:07:20;14.90;68.70
49731;DHT22;35622;52.008;5.426;2023-02-23T15:09:52;15.20;67.90
49731;DHT22;35622;52.008;5.426;2023-02-23T15:12:23;15.00;67.80
49731;DHT22;35622;52.008;5.426;2023-02-23T15:14:57;15.00;67.60
49731;DHT22;35622;52.008;5.426;2023-02-23T15:17:26;14.90;67.20
49731;DHT22;35622;52.008;5.426;2023-02-23T15:19:55;15.00;66.60
49731;DHT22;35622;52.008;5.426;2023-02-23T15:22:31;15.00;66.00
49731;DHT22;35622;52.008;5.426;2023-02-23T15:24:59;14.60;66.80
49731;DHT22;35622;52.008;5.426;2023-02-23T15:27:37;14.70;67.70
49731;DHT22;35622;52.008;5.426;2023-02-23T15:32:46;14.40;68.70
49731;DHT22;35622;52.008;5.426;2023-02-23T15:35:12;14.40;69.30
49731;DHT22;35622;52.008;5.426;2023-02-23T15:37:41;14.30;69.30
49731;DHT22;35622;52.008;5.426;2023-02-23T15:40:26;14.20;69.20
49731;DHT22;35622;52.008;5.426;2023-02-23T15:42:54;14.10;69.00
49731;DHT22;35622;52.008;5.426;2023-02-23T15:45:31;14.10;69.80
49731;DHT22;35622;52.008;5.426;2023-02-23T15:48:02;14.20;69.80
49731;DHT22;35622;52.008;5.426;2023-02-23T15:50:32;13.80;71.10
49731;DHT22;35622;52.008;5.426;2023-02-23T15:55:46;13.70;71.60
49731;DHT22;35622;52.008;5.426;2023-02-23T16:00:44;13.60;72.50
49731;DHT22;35622;52.008;5.426;2023-02-23T16:03:45;13.20;73.20
49731;DHT22;35622;52.008;5.426;2023-02-23T16:06:25;13.30;74.00
49731;DHT22;35622;52.008;5.426;2023-02-23T16:08:59;13.30;74.20
49731;DHT22;35622;52.008;5.426;2023-02-23T16:11:32;13.30;74.00
49731;DHT22;35622;52.008;5.426;2023-02-23T16:14:01;13.10;74.40
49731;DHT22;35622;52.008;5.426;2023-02-23T16:16:28;13.20;74.80
49731;DHT22;35622;52.008;5.426;2023-02-23T16:18:57;13.20;75.20
49731;DHT22;35622;52.008;5.426;2023-02-23T16:21:28;13.10;75.00
49731;DHT22;35622;52.008;5.426;2023-02-23T16:23:59;12.80;75.40
49731;DHT22;35622;52.008;5.426;2023-02-23T16:26:45;12.50;76.70
49731;DHT22;35622;52.008;5.426;2023-02-23T16:29:16;12.50;76.70
49731;DHT22;35622;52.008;5.426;2023-02-23T16:31:44;12.50;77.10
49731;DHT22;35622;52.008;5.426;2023-02-23T16:34:32;12.30;77.60
49731;DHT22;35622;52.008;5.426;2023-02-23T16:37:19;12.30;78.00
49731;DHT22;35622;52.008;5.426;2023-02-23T16:39:47;12.40;77.10
49731;DHT22;35622;52.008;5.426;2023-02-23T16:42:20;12.40;77.00
49731;DHT22;35622;52.008;5.426;2023-02-23T16:44:46;12.40;76.90
49731;DHT22;35622;52.008;5.426;2023-02-23T16:47:42;12.30;77.60
49731;DHT22;35622;52.008;5.426;2023-02-23T16:50:19;12.40;77.70
49731;DHT22;35622;52.008;5.426;2023-02-23T16:52:47;12.30;77.60
49731;DHT22;35622;52.008;5.426;2023-02-23T16:55:16;12.50;77.50
49731;DHT22;35622;52.008;5.426;2023-02-23T16:57:46;12.30;77.30
49731;DHT22;35622;52.008;5.426;2023-02-23T17:00:19;12.20;77.80
49731;DHT22;35622;52.008;5.426;2023-02-23T17:02:47;12.10;78.10
49731;DHT22;35622;52.008;5.426;2023-02-23T17:05:14;12.00;79.00
49731;DHT22;35622;52.008;5.426;2023-02-23T17:07:44;12.10;78.50
49731;DHT22;35622;52.008;5.426;2023-02-23T17:10:23;12.10;78.10
49731;DHT22;35622;52.008;5.426;2023-02-23T17:13:07;12.00;78.40
49731;DHT22;35622;52.008;5.426;2023-02-23T17:15:41;12.10;78.30
49731;DHT22;35622;52.008;5.426;2023-02-23T17:18:15;12.00;78.20
49731;DHT22;35622;52.008;5.426;2023-02-23T17:20:41;11.90;77.90
49731;DHT22;35622;52.008;5.426;2023-02-23T17:23:06;12.00;78.20
49731;DHT22;35622;52.008;5.426;2023-02-23T17:25:32;12.00;78.00
49731;DHT22;35622;52.008;5.426;2023-02-23T17:27:59;12.00;78.50
49731;DHT22;35622;52.008;5.426;2023-02-23T17:30:25;11.80;78.50
49731;DHT22;35622;52.008;5.426;2023-02-23T17:32:53;12.00;78.70
49731;DHT22;35622;52.008;5.426;2023-02-23T17:35:19;12.20;78.00
49731;DHT22;35622;52.008;5.426;2023-02-23T17:37:45;12.00;78.60
49731;DHT22;35622;52.008;5.426;2023-02-23T17:40:15;12.00;78.30
49731;DHT22;35622;52.008;5.426;2023-02-23T17:42:42;12.00;78.20
49731;DHT22;35622;52.008;5.426;2023-02-23T17:45:08;12.00;78.60
49731;DHT22;35622;52.008;5.426;2023-02-23T17:47:35;12.00;78.00
49731;DHT22;35622;52.008;5.426;2023-02-23T17:50:03;11.90;78.10